Time,TemperatureF,DewpointF,PressureIn,WindDirection,WindDirectionDegrees,WindSpeedMPH,WindSpeedGustMPH,Humidity,HourlyPrecipIn,Conditions,Clouds,dailyrainin,SoftwareType,DateUTC
2013-05-12 00:00:00,72.9,62.5,29.86,SSW,204,0.0,0.0,70,0.00,,---,0.00,VWS V14.01,2013-05-12 04:00:00,
2013-05-12 00:01:00,73.0,63.5,29.86,SW,234,0.0,0.0,72,0.00,,---,0.00,VWS V14.01,2013-05-12 04:01:00,
2013-05-12 00:06:00,73.0,63.5,29.86,SW,233,0.0,0.0,72,0.00,,---,0.00,VWS V14.01,2013-05-12 04:06:00,
2013-05-12 00:11:00,73.0,63.5,29.86,SSW,212,0.0,0.0,72,0.00,,---,0.00,VWS V14.01,2013-05-12 04:11:00,
2013-05-12 00:16:00,73.0,63.8,29.85,WSW,250,0.0,0.0,73,0.00,,---,0.00,VWS V14.01,2013-05-12 04:16:00,
2013-05-12 00:21:00,73.0,63.8,29.85,WSW,241,0.0,0.0,73,0.00,,---,0.00,VWS V14.01,2013-05-12 04:21:00,
2013-05-12 00:26:00,73.0,63.8,29.85,SW,230,0.0,0.0,73,0.00,,---,0.00,VWS V14.01,2013-05-12 04:26:00,
2013-05-12 00:30:00,72.7,62.8,29.87,SSW,212,0.0,0.0,71,0.00,,---,0.00,VWS V14.01,2013-05-12 04:30:00,
2013-05-12 00:31:00,72.9,63.8,29.85,SW,225,0.0,0.0,73,0.00,,---,0.00,VWS V14.01,2013-05-12 04:31:00,
2013-05-12 00:36:00,72.8,63.7,29.84,SW,214,0.0,0.0,73,0.00,,---,0.00,VWS V14.01,2013-05-12 04:36:00,
2013-05-12 00:41:00,72.7,63.5,29.84,SW,217,0.0,0.0,73,0.00,,---,0.00,VWS V14.01,2013-05-12 04:41:00,
2013-05-12 00:46:00,72.7,63.5,29.84,SW,223,0.0,0.0,73,0.00,,---,0.00,VWS V14.01,2013-05-12 04:46:00,
2013-05-12 00:51:00,72.6,63.8,29.84,SW,236,0.0,0.0,74,0.00,,---,0.00,VWS V14.01,2013-05-12 04:51:00,
2013-05-12 00:56:00,72.6,63.8,29.84,SW,236,0.0,0.0,74,0.00,,---,0.00,VWS V14.01,2013-05-12 04:56:00,
2013-05-12 01:00:00,72.4,62.9,29.87,SW,221,0.0,0.0,72,0.00,,---,0.00,VWS V14.01,2013-05-12 05:00:00,
2013-05-12 01:01:00,72.6,63.8,29.83,SW,236,0.0,0.0,74,0.00,,---,0.00,VWS V14.01,2013-05-12 05:01:00,
2013-05-12 01:05:00,72.5,63.8,29.83,SW,236,0.0,0.0,74,0.00,,---,0.00,VWS V14.01,2013-05-12 05:05:00,
2013-05-12 01:10:00,72.5,63.8,29.83,SW,236,0.0,0.0,74,0.00,,---,0.00,VWS V14.01,2013-05-12 05:10:00,
2013-05-12 01:15:00,72.4,63.7,29.83,SW,224,0.0,0.0,74,0.00,,---,0.00,VWS V14.01,2013-05-12 05:15:00,
2013-05-12 01:20:00,72.4,63.7,29.83,SW,224,0.0,0.0,74,0.00,,---,0.00,VWS V14.01,2013-05-12 05:20:00,
2013-05-12 01:25:00,72.3,63.6,29.83,SW,224,0.0,0.0,74,0.00,,---,0.00,VWS V14.01,2013-05-12 05:25:00,
2013-05-12 01:30:00,72.2,63.8,29.83,SW,224,0.0,0.0,75,0.00,,---,0.00,VWS V14.01,2013-05-12 05:30:00,
2013-05-12 01:35:00,72.2,63.8,29.83,SW,224,0.0,0.0,75,0.00,,---,0.00,VWS V14.01,2013-05-12 05:35:00,
2013-05-12 01:40:00,72.2,63.8,29.83,SW,224,0.0,0.0,75,0.00,,---,0.00,VWS V14.01,2013-05-12 05:40:00,
2013-05-12 01:45:00,72.1,63.8,29.83,SW,227,0.0,0.0,75,0.00,,---,0.00,VWS V14.01,2013-05-12 05:45:00,
2013-05-12 01:50:00,72.1,63.8,29.83,SW,224,0.0,0.0,75,0.00,,---,0.00,VWS V14.01,2013-05-12 05:50:00,
2013-05-12 01:55:00,72.1,63.8,29.83,SW,236,0.0,0.0,75,0.00,,---,0.00,VWS V14.01,2013-05-12 05:55:00,
2013-05-12 02:00:00,72.1,63.8,29.83,SW,235,0.0,0.0,75,0.00,,---,0.00,VWS V14.01,2013-05-12 06:00:00,
2013-05-12 02:05:00,72.1,63.8,29.83,SW,234,0.0,0.0,75,0.00,,---,0.00,VWS V14.01,2013-05-12 06:05:00,
2013-05-12 02:10:00,72.1,63.8,29.83,SW,215,0.0,0.0,75,0.00,,---,0.00,VWS V14.01,2013-05-12 06:10:00,
2013-05-12 02:15:00,72.1,63.8,29.83,WSW,251,0.0,0.0,75,0.00,,---,0.00,VWS V14.01,2013-05-12 06:15:00,
2013-05-12 02:20:00,72.1,63.8,29.83,SW,214,0.0,0.0,75,0.00,,---,0.00,VWS V14.01,2013-05-12 06:20:00,
2013-05-12 02:25:00,72.1,63.8,29.83,SW,221,0.0,0.0,75,0.00,,---,0.00,VWS V14.01,2013-05-12 06:25:00,
2013-05-12 02:30:00,72.2,63.8,29.83,SW,215,0.0,0.0,75,0.00,,---,0.00,VWS V14.01,2013-05-12 06:30:00,
2013-05-12 02:35:00,72.3,63.6,29.83,SSW,212,0.0,0.0,74,0.00,,---,0.00,VWS V14.01,2013-05-12 06:35:00,
2013-05-12 02:40:00,72.4,63.7,29.83,West,265,0.0,0.0,74,0.00,,---,0.00,VWS V14.01,2013-05-12 06:40:00,
2013-05-12 02:45:00,72.5,63.8,29.83,South,188,0.0,0.0,74,0.00,,---,0.00,VWS V14.01,2013-05-12 06:45:00,
2013-05-12 02:50:00,72.5,63.4,29.82,WSW,240,0.0,0.0,73,0.00,,---,0.00,VWS V14.01,2013-05-12 06:50:00,
2013-05-12 02:55:00,72.5,63.4,29.82,SW,224,0.0,0.0,73,0.00,,---,0.00,VWS V14.01,2013-05-12 06:55:00,
2013-05-12 03:00:00,72.5,63.4,29.82,WSW,251,0.0,0.0,73,0.00,,---,0.00,VWS V14.01,2013-05-12 07:00:00,
2013-05-12 03:05:00,72.5,63.4,29.82,SSW,213,0.0,0.0,73,0.00,,---,0.00,VWS V14.01,2013-05-12 07:05:00,
2013-05-12 03:10:00,72.5,63.0,29.82,SW,229,0.0,0.0,72,0.00,,---,0.00,VWS V14.01,2013-05-12 07:10:00,
2013-05-12 03:15:00,72.5,63.0,29.82,SSW,201,0.0,0.0,72,0.00,,---,0.00,VWS V14.01,2013-05-12 07:15:00,
2013-05-12 03:20:00,72.5,63.0,29.82,SW,219,0.0,0.0,72,0.00,,---,0.00,VWS V14.01,2013-05-12 07:20:00,
2013-05-12 03:25:00,72.5,63.0,29.82,SSW,213,0.0,0.0,72,0.00,,---,0.00,VWS V14.01,2013-05-12 07:25:00,
2013-05-12 03:30:00,72.5,63.0,29.82,WSW,257,0.0,0.0,72,0.00,,---,0.00,VWS V14.01,2013-05-12 07:30:00,
2013-05-12 03:35:00,72.5,63.0,29.82,WSW,250,0.0,0.0,72,0.00,,---,0.00,VWS V14.01,2013-05-12 07:35:00,
2013-05-12 03:40:00,72.4,62.9,29.82,SW,227,0.0,0.0,72,0.00,,---,0.00,VWS V14.01,2013-05-12 07:40:00,
2013-05-12 03:45:00,72.4,62.9,29.82,WSW,242,0.0,0.0,72,0.00,,---,0.00,VWS V14.01,2013-05-12 07:45:00,
2013-05-12 03:50:00,72.4,62.9,29.82,West,262,0.0,0.0,72,0.00,,---,0.00,VWS V14.01,2013-05-12 07:50:00,
2013-05-12 03:55:00,72.4,62.9,29.82,SW,219,0.0,0.0,72,0.00,,---,0.00,VWS V14.01,2013-05-12 07:55:00,
2013-05-12 04:00:00,72.4,62.5,29.82,SW,223,0.0,0.0,71,0.00,,---,0.00,VWS V14.01,2013-05-12 08:00:00,
2013-05-12 04:05:00,72.4,62.5,29.82,West,276,0.0,0.0,71,0.00,,---,0.00,VWS V14.01,2013-05-12 08:05:00,
2013-05-12 04:10:00,72.3,62.4,29.82,West,265,0.0,0.0,71,0.00,,---,0.00,VWS V14.01,2013-05-12 08:10:00,
2013-05-12 04:15:00,72.4,62.5,29.82,SW,234,0.0,0.0,71,0.00,,---,0.00,VWS V14.01,2013-05-12 08:15:00,
2013-05-12 04:20:00,72.3,62.4,29.82,SW,219,0.0,0.0,71,0.00,,---,0.00,VWS V14.01,2013-05-12 08:20:00,
2013-05-12 04:25:00,72.3,62.4,29.82,SW,229,0.0,0.0,71,0.00,,---,0.00,VWS V14.01,2013-05-12 08:25:00,
2013-05-12 04:30:00,72.3,62.4,29.82,West,266,0.0,0.0,71,0.00,,---,0.00,VWS V14.01,2013-05-12 08:30:00,
2013-05-12 04:35:00,72.2,62.3,29.82,WSW,244,0.0,0.0,71,0.00,,---,0.00,VWS V14.01,2013-05-12 08:35:00,
2013-05-12 04:40:00,72.2,62.3,29.82,WSW,242,0.0,0.0,71,0.00,,---,0.00,VWS V14.01,2013-05-12 08:40:00,
2013-05-12 04:45:00,72.1,62.2,29.81,SSW,213,0.0,0.0,71,0.00,,---,0.00,VWS V14.01,2013-05-12 08:45:00,
2013-05-12 04:50:00,72.1,62.2,29.82,SSW,213,0.0,0.0,71,0.00,,---,0.00,VWS V14.01,2013-05-12 08:50:00,
2013-05-12 04:55:00,72.1,62.6,29.82,SW,226,0.0,0.0,72,0.00,,---,0.00,VWS V14.01,2013-05-12 08:55:00,
2013-05-12 05:00:00,72.0,62.5,29.82,SW,235,0.0,0.0,72,0.00,,---,0.00,VWS V14.01,2013-05-12 09:00:00,
2013-05-12 05:05:00,72.0,62.5,29.82,SW,227,0.0,0.0,72,0.00,,---,0.00,VWS V14.01,2013-05-12 09:05:00,
2013-05-12 05:10:00,71.9,62.4,29.82,WSW,246,0.0,0.0,72,0.00,,---,0.00,VWS V14.01,2013-05-12 09:10:00,
2013-05-12 05:15:00,71.9,62.8,29.81,SW,218,0.0,0.0,73,0.00,,---,0.00,VWS V14.01,2013-05-12 09:15:00,
2013-05-12 05:20:00,71.7,62.6,29.81,SSW,211,0.0,0.0,73,0.00,,---,0.00,VWS V14.01,2013-05-12 09:20:00,
2013-05-12 05:25:00,71.5,62.8,29.81,WSW,244,0.0,0.0,74,0.00,,---,0.00,VWS V14.01,2013-05-12 09:25:00,
2013-05-12 05:30:00,71.4,62.7,29.81,SW,227,0.0,0.0,74,0.00,,---,0.00,VWS V14.01,2013-05-12 09:30:00,
2013-05-12 05:35:00,71.3,62.6,29.81,WSW,246,0.0,0.0,74,0.00,,---,0.00,VWS V14.01,2013-05-12 09:35:00,
2013-05-12 05:40:00,71.2,62.5,29.81,SW,220,0.0,0.0,74,0.00,,---,0.00,VWS V14.01,2013-05-12 09:40:00,
2013-05-12 05:45:00,71.2,62.9,29.81,WSW,252,0.0,0.0,75,0.00,,---,0.00,VWS V14.01,2013-05-12 09:45:00,
2013-05-12 05:50:00,71.1,62.8,29.81,SW,230,0.0,0.0,75,0.00,,---,0.00,VWS V14.01,2013-05-12 09:50:00,
2013-05-12 05:55:00,71.1,62.8,29.81,WSW,245,0.0,0.0,75,0.00,,---,0.00,VWS V14.01,2013-05-12 09:55:00,
2013-05-12 06:00:00,71.1,62.8,29.81,SW,216,0.0,0.0,75,0.00,,---,0.00,VWS V14.01,2013-05-12 10:00:00,
2013-05-12 06:05:00,71.0,62.7,29.81,West,259,0.0,0.0,75,0.00,,---,0.00,VWS V14.01,2013-05-12 10:05:00,
2013-05-12 06:10:00,71.0,62.7,29.81,West,277,0.0,0.0,75,0.00,,---,0.00,VWS V14.01,2013-05-12 10:10:00,
2013-05-12 06:15:00,70.9,62.6,29.81,WSW,252,0.0,0.0,75,0.00,,---,0.00,VWS V14.01,2013-05-12 10:15:00,
2013-05-12 06:20:00,70.9,62.6,29.81,WNW,292,0.0,0.0,75,0.00,,---,0.00,VWS V14.01,2013-05-12 10:20:00,
2013-05-12 06:25:00,70.8,62.5,29.81,West,275,0.0,0.0,75,0.00,,---,0.00,VWS V14.01,2013-05-12 10:25:00,
2013-05-12 06:30:00,70.7,62.4,29.81,WSW,250,0.0,0.0,75,0.00,,---,0.00,VWS V14.01,2013-05-12 10:30:00,
2013-05-12 06:35:00,70.6,62.3,29.82,WSW,258,0.0,0.0,75,0.00,,---,0.00,VWS V14.01,2013-05-12 10:35:00,
2013-05-12 06:40:00,70.5,62.2,29.82,West,259,0.0,0.0,75,0.00,,---,0.00,VWS V14.01,2013-05-12 10:40:00,
2013-05-12 06:45:00,70.4,62.1,29.82,West,269,0.0,0.0,75,0.00,,---,0.00,VWS V14.01,2013-05-12 10:45:00,
2013-05-12 06:50:00,70.5,62.2,29.82,West,277,0.0,0.0,75,0.00,,---,0.00,VWS V14.01,2013-05-12 10:50:00,
2013-05-12 06:55:00,70.5,62.2,29.82,SW,215,0.0,0.0,75,0.00,,---,0.00,VWS V14.01,2013-05-12 10:55:00,
2013-05-12 07:00:00,70.5,62.2,29.83,WSW,243,0.0,0.0,75,0.00,,---,0.00,VWS V14.01,2013-05-12 11:00:00,
2013-05-12 07:05:00,70.5,61.8,29.83,West,277,0.0,0.0,74,0.00,,---,0.00,VWS V14.01,2013-05-12 11:05:00,
2013-05-12 07:10:00,70.5,61.8,29.82,West,264,0.0,0.0,74,0.00,,---,0.00,VWS V14.01,2013-05-12 11:10:00,
2013-05-12 07:15:00,70.5,61.8,29.83,West,264,0.0,0.0,74,0.00,,---,0.00,VWS V14.01,2013-05-12 11:15:00,
2013-05-12 07:20:00,70.4,61.7,29.83,West,265,0.0,0.0,74,0.00,,---,0.00,VWS V14.01,2013-05-12 11:20:00,
2013-05-12 07:25:00,70.3,61.6,29.83,West,260,0.0,0.0,74,0.00,,---,0.00,VWS V14.01,2013-05-12 11:25:00,
2013-05-12 07:30:00,70.2,61.5,29.83,SW,220,0.0,0.0,74,0.00,,---,0.00,VWS V14.01,2013-05-12 11:30:00,
2013-05-12 07:35:00,70.3,62.0,29.83,West,273,0.0,0.0,75,0.00,,---,0.00,VWS V14.01,2013-05-12 11:35:00,
2013-05-12 07:40:00,70.5,62.2,29.84,SW,217,0.0,0.0,75,0.00,,---,0.00,VWS V14.01,2013-05-12 11:40:00,
2013-05-12 07:45:00,70.8,62.1,29.84,West,277,0.0,0.0,74,0.00,,---,0.00,VWS V14.01,2013-05-12 11:45:00,
2013-05-12 07:50:00,71.0,62.3,29.84,West,261,0.0,0.0,74,0.00,,---,0.00,VWS V14.01,2013-05-12 11:50:00,
2013-05-12 07:55:00,71.1,62.0,29.84,WSW,250,0.0,0.0,73,0.00,,---,0.00,VWS V14.01,2013-05-12 11:55:00,
2013-05-12 08:00:00,71.0,61.9,29.84,WSW,256,0.0,0.0,73,0.00,,---,0.00,VWS V14.01,2013-05-12 12:00:00,
2013-05-12 08:04:00,70.9,62.2,29.84,WSW,248,0.0,0.0,74,0.00,,---,0.00,VWS V14.01,2013-05-12 12:04:00,
2013-05-12 08:09:00,71.2,62.1,29.84,West,273,0.0,0.0,73,0.00,,---,0.00,VWS V14.01,2013-05-12 12:09:00,
2013-05-12 08:14:00,71.5,62.4,29.85,West,271,0.0,0.0,73,0.00,,---,0.00,VWS V14.01,2013-05-12 12:14:00,
2013-05-12 08:19:00,71.7,62.2,29.85,West,265,0.0,0.0,72,0.00,,---,0.00,VWS V14.01,2013-05-12 12:19:00,
2013-05-12 08:24:00,71.8,62.3,29.85,SW,226,0.0,0.0,72,0.00,,---,0.00,VWS V14.01,2013-05-12 12:24:00,
2013-05-12 08:29:00,72.0,62.5,29.85,WSW,246,0.0,0.0,72,0.00,,---,0.00,VWS V14.01,2013-05-12 12:29:00,
2013-05-12 08:30:00,71.4,62.7,29.81,SW,227,0.0,0.0,74,0.00,,---,0.00,VWS V14.01,2013-05-12 12:30:00,
2013-05-12 08:34:00,72.3,62.8,29.85,West,259,0.0,0.0,72,0.00,,---,0.00,VWS V14.01,2013-05-12 12:34:00,
2013-05-12 08:39:00,72.2,62.3,29.85,WNW,302,0.0,0.0,71,0.00,,---,0.00,VWS V14.01,2013-05-12 12:39:00,
2013-05-12 08:44:00,72.2,62.3,29.86,West,281,0.0,0.0,71,0.00,,---,0.00,VWS V14.01,2013-05-12 12:44:00,
2013-05-12 08:49:00,72.2,61.9,29.86,NNW,344,0.0,0.0,70,0.00,,---,0.00,VWS V14.01,2013-05-12 12:49:00,
2013-05-12 08:54:00,72.4,61.7,29.86,West,271,0.0,0.0,69,0.00,,---,0.00,VWS V14.01,2013-05-12 12:54:00,
2013-05-12 08:59:00,72.4,62.1,29.86,WNW,284,0.0,0.0,70,0.00,,---,0.00,VWS V14.01,2013-05-12 12:59:00,
2013-05-12 09:00:00,71.1,62.8,29.81,SW,223,0.0,0.0,75,0.00,,---,0.00,VWS V14.01,2013-05-12 13:00:00,
2013-05-12 09:04:00,72.7,62.0,29.86,WNW,290,0.0,0.0,69,0.00,,---,0.00,VWS V14.01,2013-05-12 13:04:00,
2013-05-12 09:09:00,72.6,61.4,29.86,NW,311,0.0,0.0,68,0.00,,---,0.00,VWS V14.01,2013-05-12 13:09:00,
2013-05-12 09:14:00,72.4,61.7,29.86,NW,307,0.0,0.0,69,0.00,,---,0.00,VWS V14.01,2013-05-12 13:14:00,
2013-05-12 09:19:00,72.1,61.4,29.85,West,264,0.0,0.0,69,0.00,,---,0.00,VWS V14.01,2013-05-12 13:19:00,
2013-05-12 09:24:00,72.3,61.6,29.86,WNW,303,0.0,0.0,69,0.00,,---,0.00,VWS V14.01,2013-05-12 13:24:00,
2013-05-12 09:29:00,72.6,61.4,29.85,NW,309,0.0,0.0,68,0.00,,---,0.00,VWS V14.01,2013-05-12 13:29:00,
2013-05-12 09:30:00,70.6,62.3,29.81,West,271,0.0,0.0,75,0.00,,---,0.00,VWS V14.01,2013-05-12 13:30:00,
2013-05-12 09:34:00,72.9,61.3,29.85,West,276,0.0,0.0,67,0.00,,---,0.00,VWS V14.01,2013-05-12 13:34:00,
2013-05-12 09:39:00,73.2,61.6,29.85,WNW,286,0.0,0.0,67,0.00,,---,0.00,VWS V14.01,2013-05-12 13:39:00,
2013-05-12 09:44:00,73.3,61.3,29.86,WNW,292,0.0,0.0,66,0.00,,---,0.00,VWS V14.01,2013-05-12 13:44:00,
2013-05-12 09:49:00,73.5,61.5,29.85,SSW,212,0.0,0.0,66,0.00,,---,0.00,VWS V14.01,2013-05-12 13:49:00,
2013-05-12 09:54:00,73.5,61.5,29.85,NNW,344,0.0,0.0,66,0.00,,---,0.00,VWS V14.01,2013-05-12 13:54:00,
2013-05-12 09:59:00,73.5,61.5,29.85,West,281,0.0,0.0,66,0.00,,---,0.00,VWS V14.01,2013-05-12 13:59:00,
2013-05-12 10:00:00,70.5,61.8,29.83,WSW,256,0.0,0.0,74,0.00,,---,0.00,VWS V14.01,2013-05-12 14:00:00,
2013-05-12 10:04:00,73.7,61.2,29.85,NW,319,0.0,0.0,65,0.00,,---,0.00,VWS V14.01,2013-05-12 14:04:00,
2013-05-12 10:09:00,73.9,61.0,29.86,NNW,338,0.0,0.0,64,0.00,,---,0.00,VWS V14.01,2013-05-12 14:09:00,
2013-05-12 10:14:00,74.2,61.2,29.86,WNW,297,0.0,0.0,64,0.00,,---,0.00,VWS V14.01,2013-05-12 14:14:00,
2013-05-12 10:19:00,74.3,61.3,29.86,West,269,0.0,0.0,64,0.00,,---,0.00,VWS V14.01,2013-05-12 14:19:00,
2013-05-12 10:24:00,74.6,61.2,29.86,West,279,0.0,0.0,63,0.00,,---,0.00,VWS V14.01,2013-05-12 14:24:00,
2013-05-12 10:29:00,74.3,60.9,29.86,WSW,248,0.0,0.0,63,0.00,,---,0.00,VWS V14.01,2013-05-12 14:29:00,
2013-05-12 10:30:00,70.2,61.9,29.83,SW,236,0.0,0.0,75,0.00,,---,0.00,VWS V14.01,2013-05-12 14:30:00,
2013-05-12 10:34:00,74.2,61.2,29.86,West,278,0.0,0.0,64,0.00,,---,0.00,VWS V14.01,2013-05-12 14:34:00,
2013-05-12 10:39:00,74.4,60.5,29.86,NNW,327,0.0,0.0,62,0.00,,---,0.00,VWS V14.01,2013-05-12 14:39:00,
2013-05-12 10:44:00,74.8,60.9,29.86,NNW,333,0.0,0.0,62,0.00,,---,0.00,VWS V14.01,2013-05-12 14:44:00,
2013-05-12 10:49:00,74.9,60.6,29.86,NNW,348,0.0,0.0,61,0.00,,---,0.00,VWS V14.01,2013-05-12 14:49:00,
2013-05-12 10:54:00,74.6,60.3,29.87,WNW,286,0.0,0.0,61,0.00,,---,0.00,VWS V14.01,2013-05-12 14:54:00,
2013-05-12 10:59:00,74.6,60.3,29.86,NW,315,0.0,0.0,61,0.00,,---,0.00,VWS V14.01,2013-05-12 14:59:00,
2013-05-12 11:00:00,71.0,61.9,29.84,West,261,0.0,0.0,73,0.00,,---,0.00,VWS V14.01,2013-05-12 15:00:00,
2013-05-12 11:04:00,74.6,60.3,29.87,NW,323,0.0,0.0,61,0.00,,---,0.00,VWS V14.01,2013-05-12 15:04:00,
2013-05-12 11:09:00,74.8,60.5,29.86,West,273,0.0,0.0,61,0.00,,---,0.00,VWS V14.01,2013-05-12 15:09:00,
2013-05-12 11:14:00,74.9,60.6,29.86,NNW,348,0.0,0.0,61,0.00,,---,0.00,VWS V14.01,2013-05-12 15:14:00,
2013-05-12 11:19:00,75.3,60.5,29.86,WNW,288,0.0,0.0,60,0.00,,---,0.00,VWS V14.01,2013-05-12 15:19:00,
2013-05-12 11:24:00,75.0,60.2,29.86,NNW,327,0.0,0.0,60,0.00,,---,0.00,VWS V14.01,2013-05-12 15:24:00,
2013-05-12 11:29:00,74.8,60.5,29.86,NW,326,0.0,0.0,61,0.00,,---,0.00,VWS V14.01,2013-05-12 15:29:00,
2013-05-12 11:30:00,72.1,62.6,29.85,WNW,288,0.0,0.0,72,0.00,,---,0.00,VWS V14.01,2013-05-12 15:30:00,
2013-05-12 11:34:00,75.0,60.2,29.86,WSW,242,0.0,0.0,60,0.00,,---,0.00,VWS V14.01,2013-05-12 15:34:00,
2013-05-12 11:39:00,75.3,60.5,29.86,West,270,0.0,0.0,60,0.00,,---,0.00,VWS V14.01,2013-05-12 15:39:00,
2013-05-12 11:44:00,75.5,60.7,29.86,NW,304,0.0,0.0,60,0.00,,---,0.00,VWS V14.01,2013-05-12 15:44:00,
2013-05-12 11:49:00,75.7,60.8,29.87,NW,308,0.0,0.0,60,0.00,,---,0.00,VWS V14.01,2013-05-12 15:49:00,
2013-05-12 11:54:00,75.8,60.0,29.86,NW,313,0.0,0.0,58,0.00,,---,0.00,VWS V14.01,2013-05-12 15:54:00,
2013-05-12 11:59:00,76.3,60.9,29.87,WSW,247,0.0,0.0,59,0.00,,---,0.00,VWS V14.01,2013-05-12 15:59:00,
2013-05-12 12:00:00,72.5,61.8,29.86,WNW,302,0.0,0.0,69,0.00,,---,0.00,VWS V14.01,2013-05-12 16:00:00,
2013-05-12 12:04:00,76.4,60.5,29.87,NW,304,0.0,0.0,58,0.00,,---,0.00,VWS V14.01,2013-05-12 16:04:00,
2013-05-12 12:09:00,76.3,60.5,29.87,WNW,298,0.0,0.0,58,0.00,,---,0.00,VWS V14.01,2013-05-12 16:09:00,
2013-05-12 12:14:00,76.6,59.8,29.87,WNW,301,0.0,0.0,56,0.00,,---,0.00,VWS V14.01,2013-05-12 16:14:00,
2013-05-12 12:19:00,77.0,59.6,29.87,SW,235,0.0,0.0,55,0.00,,---,0.00,VWS V14.01,2013-05-12 16:19:00,
2013-05-12 12:24:00,76.9,60.0,29.87,West,271,0.0,0.0,56,0.00,,---,0.00,VWS V14.01,2013-05-12 16:24:00,
2013-05-12 12:29:00,77.1,59.7,29.86,WNW,296,0.0,0.0,55,0.00,,---,0.00,VWS V14.01,2013-05-12 16:29:00,
2013-05-12 12:30:00,72.7,61.5,29.85,West,267,0.0,0.0,68,0.00,,---,0.00,VWS V14.01,2013-05-12 16:30:00,
2013-05-12 12:34:00,77.3,59.9,29.86,SSW,198,0.0,0.0,55,0.00,,---,0.00,VWS V14.01,2013-05-12 16:34:00,
2013-05-12 12:39:00,77.3,59.4,29.86,West,265,0.0,0.0,54,0.00,,---,0.00,VWS V14.01,2013-05-12 16:39:00,
2013-05-12 12:44:00,76.8,59.4,29.86,SW,217,0.0,0.0,55,0.00,,---,0.00,VWS V14.01,2013-05-12 16:44:00,
2013-05-12 12:49:00,76.9,59.0,29.86,WSW,241,0.0,0.0,54,0.00,,---,0.00,VWS V14.01,2013-05-12 16:49:00,
2013-05-12 12:54:00,76.9,59.0,29.86,WSW,256,0.0,0.0,54,0.00,,---,0.00,VWS V14.01,2013-05-12 16:54:00,
2013-05-12 12:59:00,77.5,58.5,29.86,WNW,290,0.0,0.0,52,0.00,,---,0.00,VWS V14.01,2013-05-12 16:59:00,
2013-05-12 13:00:00,73.5,61.5,29.85,NW,306,0.0,0.0,66,0.00,,---,0.00,VWS V14.01,2013-05-12 17:00:00,
2013-05-12 13:04:00,77.8,59.3,29.86,West,267,0.0,0.0,53,0.00,,---,0.00,VWS V14.01,2013-05-12 17:04:00,
2013-05-12 13:09:00,78.0,58.4,29.86,WSW,252,0.0,0.0,51,0.00,,---,0.00,VWS V14.01,2013-05-12 17:09:00,
2013-05-12 13:14:00,77.9,57.2,29.86,West,261,0.0,0.0,49,0.00,,---,0.00,VWS V14.01,2013-05-12 17:14:00,
2013-05-12 13:19:00,77.7,58.2,29.86,WNW,294,0.0,0.0,51,0.00,,---,0.00,VWS V14.01,2013-05-12 17:19:00,
2013-05-12 13:24:00,78.0,59.0,29.86,WNW,290,0.0,0.0,52,0.00,,---,0.00,VWS V14.01,2013-05-12 17:24:00,
2013-05-12 13:29:00,78.3,57.6,29.86,West,277,0.0,0.0,49,0.00,,---,0.00,VWS V14.01,2013-05-12 17:29:00,
2013-05-12 13:30:00,74.2,60.8,29.86,NNW,327,0.0,0.0,63,0.00,,---,0.00,VWS V14.01,2013-05-12 17:30:00,
2013-05-12 13:34:00,77.9,57.8,29.85,NW,321,0.0,0.0,50,0.00,,---,0.00,VWS V14.01,2013-05-12 17:34:00,
2013-05-12 13:39:00,77.6,57.0,29.86,West,265,0.0,0.0,49,0.00,,---,0.00,VWS V14.01,2013-05-12 17:39:00,
2013-05-12 13:44:00,78.3,58.7,29.86,WSW,258,0.0,0.0,51,0.00,,---,0.00,VWS V14.01,2013-05-12 17:44:00,
2013-05-12 13:49:00,79.2,59.5,29.86,West,265,0.0,0.0,51,0.00,,---,0.00,VWS V14.01,2013-05-12 17:49:00,
2013-05-12 13:54:00,79.0,58.2,29.86,WNW,291,0.0,0.0,49,0.00,,---,0.00,VWS V14.01,2013-05-12 17:54:00,
2013-05-12 13:59:00,78.8,58.6,29.86,West,261,0.0,0.0,50,0.00,,---,0.00,VWS V14.01,2013-05-12 17:59:00,
2013-05-12 14:00:00,74.6,60.3,29.86,NNW,338,0.0,0.0,61,0.00,,---,0.00,VWS V14.01,2013-05-12 18:00:00,
2013-05-12 14:04:00,78.7,56.8,29.86,SSW,204,0.0,0.0,47,0.00,,---,0.00,VWS V14.01,2013-05-12 18:04:00,
2013-05-12 14:09:00,79.0,57.7,29.86,SW,231,0.0,0.0,48,0.00,,---,0.00,VWS V14.01,2013-05-12 18:09:00,
2013-05-12 14:14:00,79.3,56.8,29.86,WNW,301,0.0,0.0,46,0.00,,---,0.00,VWS V14.01,2013-05-12 18:14:00,
2013-05-12 14:18:00,79.1,56.0,29.86,WSW,256,0.0,0.0,45,0.00,,---,0.00,VWS V14.01,2013-05-12 18:18:00,
2013-05-12 14:23:00,79.3,54.9,29.85,NW,306,0.0,0.0,43,0.00,,---,0.00,VWS V14.01,2013-05-12 18:23:00,
2013-05-12 14:28:00,79.4,55.6,29.85,West,267,0.0,0.0,44,0.00,,---,0.00,VWS V14.01,2013-05-12 18:28:00,
2013-05-12 14:30:00,74.8,60.0,29.86,WNW,283,0.0,0.0,60,0.00,,---,0.00,VWS V14.01,2013-05-12 18:30:00,
2013-05-12 14:33:00,79.4,56.8,29.86,WNW,288,0.0,0.0,46,0.00,,---,0.00,VWS V14.01,2013-05-12 18:33:00,
2013-05-12 14:38:00,79.4,55.0,29.85,West,280,0.0,0.0,43,0.00,,---,0.00,VWS V14.01,2013-05-12 18:38:00,
2013-05-12 14:43:00,79.3,55.5,29.85,West,275,0.0,0.0,44,0.00,,---,0.00,VWS V14.01,2013-05-12 18:43:00,
2013-05-12 14:48:00,79.4,55.6,29.85,SSW,198,0.0,0.0,44,0.00,,---,0.00,VWS V14.01,2013-05-12 18:48:00,
2013-05-12 14:53:00,79.4,55.6,29.85,WSW,246,0.0,0.0,44,0.00,,---,0.00,VWS V14.01,2013-05-12 18:53:00,
2013-05-12 14:58:00,79.8,56.0,29.85,WSW,249,0.0,0.0,44,0.00,,---,0.00,VWS V14.01,2013-05-12 18:58:00,
2013-05-12 15:00:00,76.4,60.5,29.87,NW,318,0.0,0.0,58,0.00,,---,0.00,VWS V14.01,2013-05-12 19:00:00,
2013-05-12 15:03:00,80.6,55.4,29.85,NW,309,0.0,0.0,42,0.00,,---,0.00,VWS V14.01,2013-05-12 19:03:00,
2013-05-12 15:08:00,79.9,55.4,29.85,West,272,0.0,0.0,43,0.00,,---,0.00,VWS V14.01,2013-05-12 19:08:00,
2013-05-12 15:13:00,79.6,55.2,29.85,SW,226,0.0,0.0,43,0.00,,---,0.00,VWS V14.01,2013-05-12 19:13:00,
2013-05-12 15:18:00,80.0,55.5,29.85,NW,320,0.0,0.0,43,0.00,,---,0.00,VWS V14.01,2013-05-12 19:18:00,
2013-05-12 15:23:00,80.0,55.5,29.84,West,281,0.0,0.0,43,0.00,,---,0.00,VWS V14.01,2013-05-12 19:23:00,
2013-05-12 15:28:00,80.0,55.5,29.84,West,277,0.0,0.0,43,0.00,,---,0.00,VWS V14.01,2013-05-12 19:28:00,
2013-05-12 15:30:00,77.1,59.2,29.86,WNW,286,0.0,0.0,54,0.00,,---,0.00,VWS V14.01,2013-05-12 19:30:00,
2013-05-12 15:33:00,80.1,56.2,29.84,WSW,253,0.0,0.0,44,0.00,,---,0.00,VWS V14.01,2013-05-12 19:33:00,
2013-05-12 15:38:00,80.5,56.0,29.84,NW,317,0.0,0.0,43,0.00,,---,0.00,VWS V14.01,2013-05-12 19:38:00,
2013-05-12 15:43:00,80.5,55.3,29.84,WNW,298,0.0,0.0,42,0.00,,---,0.00,VWS V14.01,2013-05-12 19:43:00,
2013-05-12 15:48:00,80.0,54.9,29.84,WNW,292,0.0,0.0,42,0.00,,---,0.00,VWS V14.01,2013-05-12 19:48:00,
2013-05-12 15:53:00,80.3,55.1,29.83,NW,311,0.0,0.0,42,0.00,,---,0.00,VWS V14.01,2013-05-12 19:53:00,
2013-05-12 15:58:00,79.6,54.5,29.84,West,274,0.0,0.0,42,0.00,,---,0.00,VWS V14.01,2013-05-12 19:58:00,
2013-05-12 16:00:00,77.7,58.7,29.86,SSW,207,0.0,0.0,52,0.00,,---,0.00,VWS V14.01,2013-05-12 20:00:00,
2013-05-12 16:03:00,79.1,54.7,29.83,WNW,283,0.0,0.0,43,0.00,,---,0.00,VWS V14.01,2013-05-12 20:03:00,
2013-05-12 16:08:00,79.6,55.2,29.83,WSW,245,0.0,0.0,43,0.00,,---,0.00,VWS V14.01,2013-05-12 20:08:00,
2013-05-12 16:13:00,80.2,57.0,29.84,WSW,255,0.0,0.0,45,0.00,,---,0.00,VWS V14.01,2013-05-12 20:13:00,
2013-05-12 16:18:00,80.3,55.8,29.84,West,266,0.0,0.0,43,0.00,,---,0.00,VWS V14.01,2013-05-12 20:18:00,
2013-05-12 16:23:00,80.6,55.4,29.84,WSW,249,0.0,0.0,42,0.00,,---,0.00,VWS V14.01,2013-05-12 20:23:00,
2013-05-12 16:28:00,80.5,56.0,29.84,NNW,327,0.0,0.0,43,0.00,,---,0.00,VWS V14.01,2013-05-12 20:28:00,
2013-05-12 16:30:00,78.3,57.6,29.86,West,267,0.0,0.0,49,0.00,,---,0.00,VWS V14.01,2013-05-12 20:30:00,
2013-05-12 16:33:00,80.4,54.6,29.83,NW,306,0.0,0.0,41,0.00,,---,0.00,VWS V14.01,2013-05-12 20:33:00,
2013-05-12 16:38:00,80.0,54.9,29.83,WSW,251,0.0,0.0,42,0.00,,---,0.00,VWS V14.01,2013-05-12 20:38:00,
2013-05-12 16:43:00,80.2,55.7,29.84,West,273,0.0,0.0,43,0.00,,---,0.00,VWS V14.01,2013-05-12 20:43:00,
2013-05-12 16:48:00,80.2,54.4,29.84,West,269,0.0,0.0,41,0.00,,---,0.00,VWS V14.01,2013-05-12 20:48:00,
2013-05-12 16:53:00,79.9,54.8,29.84,WNW,301,0.0,0.0,42,0.00,,---,0.00,VWS V14.01,2013-05-12 20:53:00,
2013-05-12 16:58:00,79.5,54.4,29.84,WNW,301,0.0,0.0,42,0.00,,---,0.00,VWS V14.01,2013-05-12 20:58:00,
2013-05-12 17:00:00,78.9,58.1,29.86,WSW,258,0.0,0.0,49,0.00,,---,0.00,VWS V14.01,2013-05-12 21:00:00,
2013-05-12 17:03:00,79.7,55.9,29.84,WNW,294,0.0,0.0,44,0.00,,---,0.00,VWS V14.01,2013-05-12 21:03:00,
2013-05-12 17:08:00,79.8,55.3,29.84,WSW,239,0.0,0.0,43,0.00,,---,0.00,VWS V14.01,2013-05-12 21:08:00,
2013-05-12 17:13:00,79.6,55.2,29.84,West,277,0.0,0.0,43,0.00,,---,0.00,VWS V14.01,2013-05-12 21:13:00,
2013-05-12 17:18:00,79.5,55.1,29.84,WSW,247,0.0,0.0,43,0.00,,---,0.00,VWS V14.01,2013-05-12 21:18:00,
2013-05-12 17:23:00,80.0,56.2,29.84,SSW,200,0.0,0.0,44,0.00,,---,0.00,VWS V14.01,2013-05-12 21:23:00,
2013-05-12 17:28:00,80.0,56.2,29.84,SW,218,0.0,0.0,44,0.00,,---,0.00,VWS V14.01,2013-05-12 21:28:00,
2013-05-12 17:30:00,79.4,55.6,29.85,WNW,282,0.0,0.0,44,0.00,,---,0.00,VWS V14.01,2013-05-12 21:30:00,
2013-05-12 17:33:00,80.1,56.2,29.84,SW,217,0.0,0.0,44,0.00,,---,0.00,VWS V14.01,2013-05-12 21:33:00,
2013-05-12 17:38:00,80.3,55.8,29.85,West,273,0.0,0.0,43,0.00,,---,0.00,VWS V14.01,2013-05-12 21:38:00,
2013-05-12 17:43:00,80.0,56.2,29.85,West,281,0.0,0.0,44,0.00,,---,0.00,VWS V14.01,2013-05-12 21:43:00,
2013-05-12 17:48:00,79.8,55.3,29.85,SSW,206,0.0,0.0,43,0.00,,---,0.00,VWS V14.01,2013-05-12 21:48:00,
2013-05-12 17:53:00,79.0,55.9,29.85,West,261,0.0,0.0,45,0.00,,---,0.00,VWS V14.01,2013-05-12 21:53:00,
2013-05-12 17:58:00,78.7,56.2,29.85,West,260,0.0,0.0,46,0.00,,---,0.00,VWS V14.01,2013-05-12 21:58:00,
2013-05-12 18:00:00,80.1,57.5,29.85,SW,236,0.0,0.0,46,0.00,,---,0.00,VWS V14.01,2013-05-12 22:00:00,
2013-05-12 18:03:00,78.7,55.6,29.85,West,269,0.0,0.0,45,0.00,,---,0.00,VWS V14.01,2013-05-12 22:03:00,
2013-05-12 18:08:00,78.8,56.3,29.85,West,271,0.0,0.0,46,0.00,,---,0.00,VWS V14.01,2013-05-12 22:08:00,
2013-05-12 18:13:00,79.2,56.0,29.85,WNW,300,0.0,0.0,45,0.00,,---,0.00,VWS V14.01,2013-05-12 22:13:00,
2013-05-12 18:18:00,79.0,54.0,29.85,WNW,297,0.0,0.0,42,0.00,,---,0.00,VWS V14.01,2013-05-12 22:18:00,
2013-05-12 18:23:00,78.9,54.5,29.86,West,278,0.0,0.0,43,0.00,,---,0.00,VWS V14.01,2013-05-12 22:23:00,
2013-05-12 18:28:00,79.1,54.1,29.85,NW,305,0.0,0.0,42,0.00,,---,0.00,VWS V14.01,2013-05-12 22:28:00,
2013-05-12 18:30:00,80.0,55.5,29.84,West,259,0.0,0.0,43,0.00,,---,0.00,VWS V14.01,2013-05-12 22:30:00,
2013-05-12 18:33:00,79.3,54.2,29.85,WSW,237,0.0,0.0,42,0.00,,---,0.00,VWS V14.01,2013-05-12 22:33:00,
2013-05-12 18:38:00,79.5,54.4,29.85,WSW,250,0.0,0.0,42,0.00,,---,0.00,VWS V14.01,2013-05-12 22:38:00,
2013-05-12 18:43:00,79.5,53.1,29.85,WNW,298,0.0,0.0,40,0.00,,---,0.00,VWS V14.01,2013-05-12 22:43:00,
2013-05-12 18:48:00,79.4,53.0,29.86,West,259,0.0,0.0,40,0.00,,---,0.00,VWS V14.01,2013-05-12 22:48:00,
2013-05-12 18:53:00,79.1,52.7,29.86,WNW,287,0.0,0.0,40,0.00,,---,0.00,VWS V14.01,2013-05-12 22:53:00,
2013-05-12 18:58:00,79.1,53.4,29.86,West,278,0.0,0.0,41,0.00,,---,0.00,VWS V14.01,2013-05-12 22:58:00,
2013-05-12 19:00:00,79.3,53.6,29.83,WSW,257,0.0,0.0,41,0.00,,---,0.00,VWS V14.01,2013-05-12 23:00:00,
2013-05-12 19:03:00,79.2,54.2,29.87,West,261,0.0,0.0,42,0.00,,---,0.00,VWS V14.01,2013-05-12 23:03:00,
2013-05-12 19:08:00,78.9,53.2,29.87,WSW,250,0.0,0.0,41,0.00,,---,0.00,VWS V14.01,2013-05-12 23:08:00,
2013-05-12 19:13:00,78.6,51.6,29.87,West,272,0.0,0.0,39,0.00,,---,0.00,VWS V14.01,2013-05-12 23:13:00,
2013-05-12 19:18:00,78.5,51.5,29.87,West,263,0.0,0.0,39,0.00,,---,0.00,VWS V14.01,2013-05-12 23:18:00,
2013-05-12 19:23:00,78.3,50.6,29.88,West,281,0.0,0.0,38,0.00,,---,0.00,VWS V14.01,2013-05-12 23:23:00,
2013-05-12 19:28:00,78.0,51.1,29.88,WNW,300,0.0,0.0,39,0.00,,---,0.00,VWS V14.01,2013-05-12 23:28:00,
2013-05-12 19:30:00,80.4,56.5,29.84,WNW,291,0.0,0.0,44,0.00,,---,0.00,VWS V14.01,2013-05-12 23:30:00,
2013-05-12 19:33:00,77.8,50.9,29.88,WNW,292,0.0,0.0,39,0.00,,---,0.00,VWS V14.01,2013-05-12 23:33:00,
2013-05-12 19:38:00,77.4,51.2,29.88,WNW,292,0.0,0.0,40,0.00,,---,0.00,VWS V14.01,2013-05-12 23:38:00,
2013-05-12 19:43:00,77.1,53.5,29.88,WNW,292,0.0,0.0,44,0.00,,---,0.00,VWS V14.01,2013-05-12 23:43:00,
2013-05-12 19:48:00,76.4,52.9,29.88,WNW,292,0.0,0.0,44,0.00,,---,0.00,VWS V14.01,2013-05-12 23:48:00,
2013-05-12 19:53:00,75.8,53.0,29.88,WNW,292,0.0,0.0,45,0.00,,---,0.00,VWS V14.01,2013-05-12 23:53:00,
2013-05-12 19:58:00,74.9,52.2,29.89,WNW,292,0.0,0.0,45,0.00,,---,0.00,VWS V14.01,2013-05-12 23:58:00,
2013-05-12 20:00:00,79.4,54.3,29.84,West,277,0.0,0.0,42,0.00,,---,0.00,VWS V14.01,2013-05-13 00:00:00,
2013-05-12 20:03:00,74.2,52.7,29.89,WNW,292,0.0,0.0,47,0.00,,---,0.00,VWS V14.01,2013-05-13 00:03:00,
2013-05-12 20:08:00,73.4,52.5,29.89,WNW,292,0.0,0.0,48,0.00,,---,0.00,VWS V14.01,2013-05-13 00:08:00,
2013-05-12 20:13:00,72.8,52.5,29.89,WNW,292,0.0,0.0,49,0.00,,---,0.00,VWS V14.01,2013-05-13 00:13:00,
2013-05-12 20:18:00,71.9,52.8,29.89,WNW,292,0.0,0.0,51,0.00,,---,0.00,VWS V14.01,2013-05-13 00:18:00,
2013-05-12 20:23:00,71.5,52.4,29.89,WNW,292,0.0,0.0,51,0.00,,---,0.00,VWS V14.01,2013-05-13 00:23:00,
2013-05-12 20:28:00,71.2,53.2,29.89,WNW,292,0.0,0.0,53,0.00,,---,0.00,VWS V14.01,2013-05-13 00:28:00,
2013-05-12 20:30:00,80.0,55.5,29.85,WSW,251,0.0,0.0,43,0.00,,---,0.00,VWS V14.01,2013-05-13 00:30:00,
2013-05-12 20:33:00,70.9,53.4,29.89,WNW,292,0.0,0.0,54,0.00,,---,0.00,VWS V14.01,2013-05-13 00:33:00,
2013-05-12 20:38:00,70.4,53.5,29.89,WNW,292,0.0,0.0,55,0.00,,---,0.00,VWS V14.01,2013-05-13 00:38:00,
2013-05-12 20:43:00,70.0,53.1,29.90,WNW,292,0.0,0.0,55,0.00,,---,0.00,VWS V14.01,2013-05-13 00:43:00,
2013-05-12 20:47:00,69.9,53.5,29.90,WNW,292,0.0,0.0,56,0.00,,---,0.00,VWS V14.01,2013-05-13 00:47:00,
2013-05-12 20:52:00,69.7,53.3,29.90,WNW,292,0.0,0.0,56,0.00,,---,0.00,VWS V14.01,2013-05-13 00:52:00,
2013-05-12 20:57:00,69.7,53.3,29.90,WNW,292,0.0,0.0,56,0.00,,---,0.00,VWS V14.01,2013-05-13 00:57:00,
2013-05-12 21:00:00,78.7,56.8,29.85,West,261,0.0,0.0,47,0.00,,---,0.00,VWS V14.01,2013-05-13 01:00:00,
2013-05-12 21:02:00,66.7,50.5,29.90,SW,223,0.0,0.0,56,0.00,,---,0.00,VWS V14.01,2013-05-13 01:02:00,
2013-05-12 21:07:00,66.7,57.8,29.91,SW,223,0.0,0.0,73,0.00,,---,0.00,VWS V14.01,2013-05-13 01:07:00,
2013-05-12 21:12:00,66.6,57.3,29.91,SW,223,0.0,0.0,72,0.00,,---,0.00,VWS V14.01,2013-05-13 01:12:00,
2013-05-12 21:17:00,66.4,57.5,29.91,SW,223,0.0,0.0,73,0.00,,---,0.00,VWS V14.01,2013-05-13 01:17:00,
2013-05-12 21:22:00,66.7,58.2,29.92,SW,223,0.0,0.0,74,0.00,,---,0.00,VWS V14.01,2013-05-13 01:22:00,
2013-05-12 21:27:00,66.9,58.3,29.92,West,263,0.0,2.0,74,0.00,,---,0.00,VWS V14.01,2013-05-13 01:27:00,
2013-05-12 21:30:00,79.2,54.8,29.85,WNW,286,0.0,0.0,43,0.00,,---,0.00,VWS V14.01,2013-05-13 01:30:00,
2013-05-12 21:32:00,67.3,56.8,29.92,WSW,242,1.0,1.0,69,0.00,,---,0.00,VWS V14.01,2013-05-13 01:32:00,
2013-05-12 21:37:00,67.7,56.0,29.92,SW,225,1.0,4.0,66,0.00,,---,0.00,VWS V14.01,2013-05-13 01:37:00,
2013-05-12 21:42:00,68.2,56.0,29.92,West,261,1.0,4.0,65,0.00,,---,0.00,VWS V14.01,2013-05-13 01:42:00,
2013-05-12 21:47:00,68.4,55.8,29.93,WSW,242,1.0,4.0,64,0.00,,---,0.00,VWS V14.01,2013-05-13 01:47:00,
2013-05-12 21:52:00,68.4,56.2,29.93,West,263,1.0,4.0,65,0.00,,---,0.00,VWS V14.01,2013-05-13 01:52:00,
2013-05-12 21:57:00,68.3,56.1,29.93,WSW,244,0.0,4.0,65,0.00,,---,0.00,VWS V14.01,2013-05-13 01:57:00,
2013-05-12 22:00:00,79.2,53.5,29.86,WNW,284,0.0,0.0,41,0.00,,---,0.00,VWS V14.01,2013-05-13 02:00:00,
2013-05-12 22:02:00,68.1,55.0,29.93,West,277,1.0,1.0,63,0.00,,---,0.00,VWS V14.01,2013-05-13 02:02:00,
2013-05-12 22:07:00,68.1,55.5,29.94,West,265,1.0,3.0,64,0.00,,---,0.00,VWS V14.01,2013-05-13 02:07:00,
2013-05-12 22:12:00,67.8,55.6,29.94,West,276,0.0,3.0,65,0.00,,---,0.00,VWS V14.01,2013-05-13 02:12:00,
2013-05-12 22:17:00,67.6,55.4,29.94,West,277,2.0,3.0,65,0.00,,---,0.00,VWS V14.01,2013-05-13 02:17:00,
2013-05-12 22:22:00,67.5,55.3,29.94,WNW,290,1.0,3.0,65,0.00,,---,0.00,VWS V14.01,2013-05-13 02:22:00,
2013-05-12 22:27:00,67.4,55.2,29.94,WSW,258,1.0,3.0,65,0.00,,---,0.00,VWS V14.01,2013-05-13 02:27:00,
2013-05-12 22:30:00,77.9,50.3,29.88,WNW,292,0.0,0.0,38,0.00,,---,0.00,VWS V14.01,2013-05-13 02:30:00,
2013-05-12 22:32:00,67.2,55.0,29.95,West,263,1.0,1.0,65,0.00,,---,0.00,VWS V14.01,2013-05-13 02:32:00,
2013-05-12 22:37:00,67.0,54.9,29.95,WNW,296,0.0,2.0,65,0.00,,---,0.00,VWS V14.01,2013-05-13 02:37:00,
2013-05-12 22:42:00,66.8,54.7,29.95,NW,325,0.0,2.0,65,0.00,,---,0.00,VWS V14.01,2013-05-13 02:42:00,
2013-05-12 22:47:00,66.6,54.5,29.95,West,277,0.0,2.0,65,0.00,,---,0.00,VWS V14.01,2013-05-13 02:47:00,
2013-05-12 22:52:00,66.3,54.2,29.95,WSW,254,0.0,2.0,65,0.00,,---,0.00,VWS V14.01,2013-05-13 02:52:00,
2013-05-12 22:57:00,65.9,54.2,29.95,SW,218,0.0,2.0,66,0.00,,---,0.00,VWS V14.01,2013-05-13 02:57:00,
2013-05-12 23:00:00,74.6,52.5,29.89,WNW,292,0.0,0.0,46,0.00,,---,0.00,VWS V14.01,2013-05-13 03:00:00,
2013-05-12 23:02:00,65.6,54.8,29.95,SW,230,0.0,0.0,68,0.00,,---,0.00,VWS V14.01,2013-05-13 03:02:00,
2013-05-12 23:07:00,65.2,54.4,29.95,West,263,0.0,1.0,68,0.00,,---,0.00,VWS V14.01,2013-05-13 03:07:00,
2013-05-12 23:12:00,65.1,54.3,29.95,South,179,0.0,1.0,68,0.00,,---,0.00,VWS V14.01,2013-05-13 03:12:00,
2013-05-12 23:17:00,64.9,54.1,29.95,West,272,0.0,1.0,68,0.00,,---,0.00,VWS V14.01,2013-05-13 03:17:00,
2013-05-12 23:22:00,64.7,53.9,29.95,West,272,0.0,1.0,68,0.00,,---,0.00,VWS V14.01,2013-05-13 03:22:00,
2013-05-12 23:27:00,64.5,53.7,29.95,West,262,0.0,1.0,68,0.00,,---,0.00,VWS V14.01,2013-05-13 03:27:00,
2013-05-12 23:30:00,71.0,53.0,29.89,WNW,292,0.0,0.0,53,0.00,,---,0.00,VWS V14.01,2013-05-13 03:30:00,
2013-05-12 23:32:00,64.4,54.0,29.95,SW,232,0.0,0.0,69,0.00,,---,0.00,VWS V14.01,2013-05-13 03:32:00,
2013-05-12 23:37:00,64.2,53.8,29.95,SW,232,0.0,1.0,69,0.00,,---,0.00,VWS V14.01,2013-05-13 03:37:00,
2013-05-12 23:42:00,64.0,53.6,29.95,SE,126,0.0,1.0,69,0.00,,---,0.00,VWS V14.01,2013-05-13 03:42:00,
2013-05-12 23:47:00,63.7,53.3,29.95,SE,126,0.0,1.0,69,0.00,,---,0.00,VWS V14.01,2013-05-13 03:47:00,
2013-05-12 23:52:00,63.4,53.5,29.95,SE,126,0.0,1.0,70,0.00,,---,0.00,VWS V14.01,2013-05-13 03:52:00,
2013-05-12 23:57:00,63.1,53.2,29.95,SE,126,0.0,1.0,70,0.00,,---,0.00,VWS V14.01,2013-05-13 03:57:00,